createdAt,value
2018-12-01T00:01:02.481Z,17.03
2018-12-01T00:03:32.076Z,17.23
2018-12-01T00:06:17.239Z,17.83
2018-12-01T00:08:46.621Z,18.83
2018-12-01T00:11:16.053Z,17.30
2018-12-01T00:13:45.454Z,17.77
2018-12-01T00:16:14.806Z,17.93
2018-12-01T00:18:44.971Z,19.10
2018-12-01T00:21:16.072Z,19.27
2018-12-01T00:23:45.478Z,16.73
2018-12-01T00:26:14.795Z,17.83
2018-12-01T00:28:44.204Z,18.13
2018-12-01T00:31:13.649Z,17.00
2018-12-01T00:33:43.014Z,17.83
2018-12-01T00:36:12.387Z,17.73
2018-12-01T00:38:41.790Z,17.80
2018-12-01T00:41:11.175Z,15.80
2018-12-01T00:43:40.650Z,17.97
2018-12-01T00:46:10.155Z,17.23
2018-12-01T00:48:39.505Z,17.27
2018-12-01T00:51:08.858Z,18.60
2018-12-01T00:53:38.251Z,16.83
2018-12-01T00:56:07.655Z,16.93
2018-12-01T00:58:37.339Z,17.27
2018-12-01T01:01:09.353Z,18.17
2018-12-01T01:03:38.781Z,19.33
2018-12-01T01:06:08.357Z,16.97
2018-12-01T01:08:37.874Z,16.73
2018-12-01T01:11:07.169Z,17.70
2018-12-01T01:13:37.977Z,16.33
2018-12-01T01:16:09.519Z,17.50
2018-12-01T01:18:39.300Z,16.73
2018-12-01T01:21:09.017Z,17.33
2018-12-01T01:23:38.732Z,16.87
2018-12-01T01:26:08.594Z,17.77
2018-12-01T01:28:38.113Z,16.80
2018-12-01T01:31:08.273Z,17.97
2018-12-01T01:33:38.197Z,16.83
2018-12-01T01:36:08.017Z,17.50
2018-12-01T01:38:37.374Z,16.97
2018-12-01T01:41:08.465Z,17.90
2018-12-01T01:43:38.392Z,17.83
2018-12-01T01:46:10.014Z,16.70
2018-12-01T01:48:39.432Z,18.00
2018-12-01T01:51:09.364Z,19.33
2018-12-01T01:53:38.824Z,17.20
2018-12-01T01:56:09.421Z,17.73
2018-12-01T01:58:40.294Z,18.70
2018-12-01T02:01:11.198Z,16.60
2018-12-01T02:03:42.869Z,19.60
2018-12-01T02:06:13.114Z,18.57
2018-12-01T02:08:42.562Z,17.30
2018-12-01T02:11:12.794Z,17.93
2018-12-01T02:13:42.573Z,16.37
2018-12-01T02:16:12.073Z,16.63
2018-12-01T02:18:41.998Z,17.77
2018-12-01T02:21:15.332Z,16.27
2018-12-01T02:23:44.779Z,14.27
2018-12-01T02:26:14.216Z,18.17
2018-12-01T02:28:43.814Z,15.90
2018-12-01T02:31:13.478Z,17.43
2018-12-01T02:33:43.082Z,17.93
2018-12-01T02:36:12.856Z,17.30
2018-12-01T02:38:43.209Z,17.13
2018-12-01T02:41:13.147Z,18.47
2018-12-01T02:43:42.944Z,17.57
2018-12-01T02:46:23.464Z,16.50
2018-12-01T02:48:52.942Z,16.33
2018-12-01T02:51:23.107Z,17.90
2018-12-01T02:53:53.385Z,17.60
2018-12-01T02:56:22.983Z,16.53
2018-12-01T02:58:52.527Z,18.77
2018-12-01T03:01:28.281Z,19.07
2018-12-01T03:03:57.849Z,18.70
2018-12-01T03:06:27.261Z,17.40
2018-12-01T03:08:56.805Z,18.37
2018-12-01T03:11:26.468Z,15.23
2018-12-01T03:13:55.921Z,16.50
2018-12-01T03:16:26.210Z,16.70
2018-12-01T03:18:55.770Z,16.60
2018-12-01T03:21:30.613Z,16.93
2018-12-01T03:24:01.255Z,18.60
2018-12-01T03:26:30.761Z,17.73
2018-12-01T03:29:01.111Z,16.17
2018-12-01T03:31:30.638Z,17.97
2018-12-01T03:34:00.244Z,16.63
2018-12-01T03:36:30.452Z,17.30
2018-12-01T03:39:00.337Z,16.30
2018-12-01T03:41:31.621Z,16.90
2018-12-01T03:44:01.086Z,17.17
2018-12-01T03:46:30.480Z,18.40
2018-12-01T03:49:00.347Z,16.93
2018-12-01T03:51:29.808Z,17.73
2018-12-01T03:53:59.318Z,18.10
2018-12-01T03:56:29.046Z,17.53
2018-12-01T03:58:59.682Z,18.20
2018-12-01T04:01:29.598Z,19.20
2018-12-01T04:03:59.492Z,18.77
2018-12-01T04:06:30.679Z,17.27
2018-12-01T04:09:04.279Z,18.20
2018-12-01T04:11:34.605Z,19.00
2018-12-01T04:14:04.148Z,18.43
2018-12-01T04:16:33.808Z,18.53
2018-12-01T04:19:03.157Z,18.53
2018-12-01T04:21:36.486Z,17.93
2018-12-01T04:24:06.125Z,19.43
2018-12-01T04:26:35.519Z,18.57
2018-12-01T04:29:05.087Z,17.50
2018-12-01T04:31:34.545Z,18.00
2018-12-01T04:34:04.089Z,18.83
2018-12-01T04:36:33.491Z,18.03
2018-12-01T04:39:02.993Z,18.87
2018-12-01T04:41:32.396Z,19.20
2018-12-01T04:44:02.895Z,18.67
2018-12-01T04:46:32.351Z,18.53
2018-12-01T04:49:01.881Z,17.93
2018-12-01T04:51:32.200Z,20.17
2018-12-01T04:54:01.579Z,19.20
2018-12-01T04:56:32.175Z,19.33
2018-12-01T04:59:01.684Z,20.40
2018-12-01T05:01:32.636Z,17.97
2018-12-01T05:04:02.359Z,18.53
2018-12-01T05:06:32.408Z,20.23
2018-12-01T05:09:01.908Z,18.87
2018-12-01T05:11:31.337Z,20.07
2018-12-01T05:14:01.207Z,19.77
2018-12-01T05:16:30.756Z,19.37
2018-12-01T05:19:00.147Z,19.07
2018-12-01T05:21:29.597Z,19.20
2018-12-01T05:23:59.012Z,21.13
2018-12-01T05:26:28.530Z,19.90
2018-12-01T05:28:57.985Z,19.17
2018-12-01T05:31:27.883Z,20.13
2018-12-01T05:33:57.866Z,19.53
2018-12-01T05:36:27.163Z,20.00
2018-12-01T05:38:56.550Z,20.73
2018-12-01T05:41:26.470Z,22.07
2018-12-01T05:43:55.923Z,22.00
2018-12-01T05:46:26.187Z,21.40
2018-12-01T05:48:55.694Z,22.60
2018-12-01T05:51:25.740Z,22.87
2018-12-01T05:53:55.271Z,22.03
2018-12-01T05:56:26.082Z,23.03
2018-12-01T06:00:25.635Z,21.90
2018-12-01T06:03:08.837Z,20.97
2018-12-01T06:05:38.235Z,22.23
2018-12-01T06:08:08.232Z,21.63
2018-12-01T06:10:37.884Z,22.23
2018-12-01T06:13:08.169Z,23.60
2018-12-01T06:15:37.654Z,21.77
2018-12-01T06:18:07.972Z,22.77
2018-12-01T06:20:37.509Z,23.90
2018-12-01T06:23:08.459Z,23.77
2018-12-01T06:25:37.793Z,20.73
2018-12-01T06:28:07.157Z,23.43
2018-12-01T06:30:36.651Z,24.43
2018-12-01T06:33:06.361Z,20.87
2018-12-01T06:35:35.974Z,23.90
2018-12-01T06:38:05.573Z,21.60
2018-12-01T06:40:36.673Z,22.77
2018-12-01T06:43:08.950Z,22.83
2018-12-01T06:45:38.435Z,23.13
2018-12-01T06:48:08.418Z,24.43
2018-12-01T06:50:37.918Z,22.87
2018-12-01T06:53:08.328Z,22.97
2018-12-01T06:55:37.854Z,23.37
2018-12-01T06:58:07.464Z,21.20
2018-12-01T07:00:36.818Z,23.63
2018-12-01T07:03:07.758Z,23.27
2018-12-01T07:11:29.510Z,24.93
2018-12-01T07:14:00.090Z,22.37
2018-12-01T07:16:29.494Z,24.87
2018-12-01T07:21:52.033Z,25.50
2018-12-01T07:24:22.179Z,25.13
2018-12-01T07:26:51.650Z,25.30
2018-12-01T07:29:40.686Z,24.27
2018-12-01T07:32:10.339Z,24.23
2018-12-01T07:34:40.018Z,25.73
2018-12-01T07:37:10.078Z,24.13
2018-12-01T07:43:04.346Z,24.93
2018-12-01T07:48:33.353Z,25.80
2018-12-01T07:51:13.273Z,25.33
2018-12-01T07:53:42.901Z,24.60
2018-12-01T07:56:12.443Z,26.23
2018-12-01T07:58:42.685Z,24.47
2018-12-01T08:01:13.063Z,26.20
2018-12-01T08:03:44.706Z,27.60
2018-12-01T08:06:14.974Z,26.10
2018-12-01T08:08:44.773Z,25.33
2018-12-01T08:11:28.546Z,24.60
2018-12-01T08:13:59.864Z,23.53
2018-12-01T08:16:32.255Z,27.30
2018-12-01T08:19:05.897Z,26.57
2018-12-01T08:21:37.190Z,27.03
2018-12-01T08:24:08.500Z,26.67
2018-12-01T08:26:41.769Z,27.70
2018-12-01T08:29:15.139Z,27.83
2018-12-01T08:31:47.648Z,26.73
2018-12-01T08:34:18.889Z,27.47
2018-12-01T08:36:54.517Z,28.10
2018-12-01T08:39:24.901Z,25.73
2018-12-01T08:41:57.423Z,27.93
2018-12-01T08:44:28.171Z,27.93
2018-12-01T08:47:05.429Z,26.60
2018-12-01T08:49:35.115Z,25.43
2018-12-01T08:52:10.130Z,24.20
2018-12-01T08:54:39.848Z,27.90
2018-12-01T08:57:09.478Z,27.13
2018-12-01T08:59:39.092Z,25.97
2018-12-01T09:02:08.599Z,27.57
2018-12-01T09:04:39.452Z,27.27
2018-12-01T09:07:09.155Z,26.53
2018-12-01T09:09:40.467Z,27.93
2018-12-01T09:12:10.816Z,28.10
2018-12-01T09:14:40.442Z,27.93
2018-12-01T09:17:10.394Z,28.63
2018-12-01T09:19:40.042Z,28.83
2018-12-01T09:22:09.793Z,25.57
2018-12-01T09:24:39.394Z,31.97
2018-12-01T09:27:09.219Z,31.10
2018-12-01T09:29:40.243Z,30.10
2018-12-01T09:32:09.700Z,32.87
2018-12-01T09:34:41.401Z,31.20
2018-12-01T09:37:10.882Z,28.40
2018-12-01T09:39:42.535Z,31.67
2018-12-01T09:42:12.833Z,29.93
2018-12-01T09:44:42.480Z,31.93
2018-12-01T09:47:12.034Z,28.90
2018-12-01T09:49:43.007Z,28.63
2018-12-01T09:52:14.657Z,29.03
2018-12-01T09:54:51.619Z,30.57
2018-12-01T09:57:21.671Z,29.90
2018-12-01T09:59:51.732Z,29.37
2018-12-01T10:02:22.028Z,31.30
2018-12-01T10:04:51.913Z,27.97
2018-12-01T10:07:21.371Z,29.83
2018-12-01T10:09:50.861Z,30.30
2018-12-01T10:12:28.272Z,29.10
2018-12-01T10:14:59.644Z,29.77
2018-12-01T10:17:31.590Z,32.10
2018-12-01T10:20:02.253Z,28.90
2018-12-01T10:22:31.860Z,32.50
2018-12-01T10:25:01.745Z,30.50
2018-12-01T10:27:31.386Z,29.27
2018-12-01T10:30:01.786Z,32.03
2018-12-01T10:32:32.614Z,30.77
2018-12-01T10:35:03.980Z,29.40
2018-12-01T10:37:33.878Z,29.10
2018-12-01T10:40:10.936Z,30.13
2018-12-01T10:42:40.604Z,30.90
2018-12-01T10:45:12.630Z,29.97
2018-12-01T10:47:43.034Z,28.97
2018-12-01T10:50:14.742Z,30.47
2018-12-01T10:52:44.853Z,29.00
2018-12-01T10:55:24.668Z,31.23
2018-12-01T10:58:01.532Z,32.37
2018-12-01T11:00:37.182Z,29.13
2018-12-01T11:03:13.684Z,30.57
2018-12-01T11:05:47.748Z,28.87
2018-12-01T11:08:17.938Z,30.47
2018-12-01T11:10:48.754Z,31.17
2018-12-01T11:13:18.789Z,30.60
2018-12-01T11:15:48.284Z,30.17
2018-12-01T11:18:17.792Z,33.37
2018-12-01T11:20:48.486Z,34.57
2018-12-01T11:23:18.457Z,31.20
2018-12-01T11:25:48.246Z,31.17
2018-12-01T11:28:18.709Z,29.80
2018-12-01T11:30:50.643Z,29.50
2018-12-01T11:33:20.734Z,32.93
2018-12-01T11:35:50.566Z,30.67
2018-12-01T11:38:20.638Z,31.90
2018-12-01T11:40:51.479Z,30.97
2018-12-01T11:43:21.413Z,31.57
2018-12-01T11:45:51.352Z,30.27
2018-12-01T11:48:21.332Z,31.73
2018-12-01T11:50:51.520Z,26.10
2018-12-01T11:53:22.131Z,33.80
2018-12-01T11:55:52.225Z,31.60
2018-12-01T11:58:21.699Z,29.67
2018-12-01T12:00:51.479Z,32.60
2018-12-01T12:03:23.520Z,32.47
2018-12-01T12:05:55.639Z,32.53
2018-12-01T12:08:26.274Z,33.53
2018-12-01T12:10:56.453Z,32.00
2018-12-01T12:13:30.335Z,34.40
2018-12-01T12:16:01.554Z,33.10
2018-12-01T12:18:31.121Z,33.07
2018-12-01T12:21:00.750Z,36.27
2018-12-01T12:23:30.650Z,32.67
2018-12-01T12:26:00.906Z,31.97
2018-12-01T12:28:30.763Z,33.77
2018-12-01T12:31:00.515Z,35.00
2018-12-01T12:33:39.941Z,32.73
2018-12-01T12:36:09.446Z,32.60
2018-12-01T12:38:40.238Z,34.97
2018-12-01T12:41:11.469Z,32.87
2018-12-01T12:43:44.502Z,35.23
2018-12-01T12:46:14.386Z,30.23
2018-12-01T12:48:43.992Z,36.13
2018-12-01T12:54:07.469Z,35.73
2018-12-01T12:56:43.540Z,35.47
2018-12-01T12:59:13.361Z,34.47
2018-12-01T13:01:43.917Z,35.80
2018-12-01T13:04:15.262Z,33.70
2018-12-01T13:06:45.896Z,33.80
2018-12-01T13:09:15.600Z,32.77
2018-12-01T13:11:45.196Z,35.73
2018-12-01T13:14:15.284Z,33.73
2018-12-01T13:16:44.830Z,32.20
2018-12-01T13:19:14.596Z,33.50
2018-12-01T13:21:44.185Z,34.80
2018-12-01T13:24:14.082Z,31.67
2018-12-01T13:26:44.098Z,35.03
2018-12-01T13:29:14.876Z,36.67
2018-12-01T13:31:44.577Z,28.53
2018-12-01T13:34:15.157Z,37.53
2018-12-01T13:36:45.235Z,35.20
2018-12-01T13:39:15.475Z,37.40
2018-12-01T13:41:46.113Z,34.73
2018-12-01T13:44:18.105Z,32.57
2018-12-01T13:46:47.997Z,36.30
2018-12-01T13:49:35.352Z,36.50
2018-12-01T13:52:04.946Z,30.17
2018-12-01T13:54:35.526Z,33.93
2018-12-01T13:57:05.141Z,35.90
2018-12-01T13:59:34.694Z,39.00
2018-12-01T14:02:04.428Z,36.00
2018-12-01T14:04:34.936Z,29.87
2018-12-01T14:07:04.899Z,31.27
2018-12-01T14:09:34.583Z,36.57
2018-12-01T14:12:04.659Z,32.60
2018-12-01T14:14:34.735Z,34.60
2018-12-01T14:17:05.282Z,35.53
2018-12-01T14:19:36.582Z,31.13
2018-12-01T14:22:06.122Z,34.87
2018-12-01T14:24:36.594Z,36.40
2018-12-01T14:27:07.291Z,33.73
2018-12-01T14:29:37.509Z,35.33
2018-12-01T14:32:09.628Z,35.40
2018-12-01T14:34:39.459Z,34.90
2018-12-01T14:37:09.181Z,34.40
2018-12-01T14:39:38.753Z,36.93
2018-12-01T14:42:08.180Z,38.97
2018-12-01T14:44:38.051Z,38.07
2018-12-01T14:47:10.711Z,33.17
2018-12-01T14:49:41.349Z,39.10
2018-12-01T14:52:13.965Z,38.53
2018-12-01T14:54:46.727Z,33.63
2018-12-01T14:57:16.657Z,39.90
2018-12-01T14:59:49.487Z,35.50
2018-12-01T15:02:23.412Z,33.73
2018-12-01T15:04:56.279Z,35.97
2018-12-01T15:07:26.268Z,33.87
2018-12-01T15:09:55.638Z,36.70
2018-12-01T15:12:25.473Z,38.37
2018-12-01T15:14:58.088Z,33.20
2018-12-01T15:17:27.926Z,34.07
2018-12-01T15:19:59.929Z,31.43
2018-12-01T15:23:56.650Z,33.60
2018-12-01T15:26:26.571Z,31.37
2018-12-01T15:28:59.415Z,36.07
2018-12-01T15:31:29.075Z,33.70
2018-12-01T15:33:59.779Z,33.07
2018-12-01T15:36:29.436Z,30.33
2018-12-01T15:39:03.225Z,33.93
2018-12-01T15:41:41.552Z,31.87
2018-12-01T15:44:16.787Z,32.30
2018-12-01T15:46:46.272Z,33.10
2018-12-01T15:49:16.235Z,31.20
2018-12-01T15:51:56.356Z,33.17
2018-12-01T15:55:05.547Z,34.43
2018-12-01T15:57:47.410Z,29.20
2018-12-01T16:00:18.095Z,31.23
2018-12-01T16:02:49.896Z,34.73
2018-12-01T16:05:20.748Z,32.87
2018-12-01T16:07:55.204Z,33.50
2018-12-01T16:10:25.249Z,36.63
2018-12-01T16:13:27.682Z,33.57
2018-12-01T16:16:08.468Z,35.17
2018-12-01T16:18:39.891Z,33.60
2018-12-01T16:21:09.736Z,33.67
2018-12-01T16:23:39.516Z,36.17
2018-12-01T16:26:08.984Z,36.23
2018-12-01T16:28:39.503Z,32.97
2018-12-01T16:31:10.000Z,32.40
2018-12-01T16:33:41.590Z,36.10
2018-12-01T16:36:11.113Z,34.10
2018-12-01T16:38:42.329Z,35.10
2018-12-01T16:41:33.705Z,35.17
2018-12-01T16:44:07.378Z,33.73
2018-12-01T16:46:41.243Z,35.70
2018-12-01T16:49:11.769Z,34.03
2018-12-01T16:51:47.990Z,33.33
2018-12-01T16:54:18.196Z,33.67
2018-12-01T16:56:47.781Z,30.77
2018-12-01T16:59:18.130Z,31.63
2018-12-01T17:01:49.144Z,31.30
2018-12-01T17:04:20.528Z,32.33
2018-12-01T17:09:28.549Z,31.20
2018-12-01T17:12:00.704Z,30.77
2018-12-01T17:14:33.135Z,30.43
2018-12-01T17:17:06.765Z,32.20
2018-12-01T17:19:37.656Z,33.50
2018-12-01T17:22:07.384Z,33.43
2018-12-01T17:24:36.867Z,34.03
2018-12-01T17:27:06.875Z,32.77
2018-12-01T17:29:37.124Z,32.60
2018-12-01T17:32:06.817Z,32.67
2018-12-01T17:34:36.373Z,36.27
2018-12-01T17:37:06.394Z,33.30
2018-12-01T17:39:37.459Z,34.27
2018-12-01T17:42:07.742Z,35.50
2018-12-01T17:44:37.140Z,37.40
2018-12-01T17:47:06.852Z,35.90
2018-12-01T17:49:36.588Z,36.77
2018-12-01T17:52:07.060Z,35.73
2018-12-01T17:54:37.485Z,34.50
2018-12-01T17:58:36.535Z,35.03
2018-12-01T18:01:09.824Z,34.33
2018-12-01T18:03:43.267Z,34.47
2018-12-01T18:06:14.957Z,32.60
2018-12-01T18:08:47.210Z,32.07
2018-12-01T18:11:22.235Z,30.90
2018-12-01T18:13:51.877Z,33.13
2018-12-01T18:16:30.517Z,31.50
2018-12-01T18:19:00.043Z,29.77
2018-12-01T18:21:33.950Z,32.70
2018-12-01T18:24:06.514Z,34.97
2018-12-01T18:26:37.392Z,32.90
2018-12-01T18:29:08.221Z,31.53
2018-12-01T18:31:40.350Z,31.17
2018-12-01T18:34:16.923Z,35.30
2018-12-01T18:36:46.334Z,32.90
2018-12-01T18:39:18.065Z,34.50
2018-12-01T18:41:49.179Z,32.73
2018-12-01T18:44:20.528Z,32.47
2018-12-01T18:46:52.298Z,31.67
2018-12-01T18:49:22.170Z,35.73
2018-12-01T18:51:56.903Z,34.33
2018-12-01T18:54:26.321Z,33.33
2018-12-01T18:56:56.247Z,34.27
2018-12-01T18:59:25.779Z,33.30
2018-12-01T19:01:55.460Z,32.00
2018-12-01T19:04:24.993Z,30.80
2018-12-01T19:06:54.493Z,34.60
2018-12-01T19:09:24.297Z,33.03
2018-12-01T19:11:54.503Z,31.00
2018-12-01T19:14:24.878Z,33.63
2018-12-01T19:32:31.425Z,29.07
2018-12-01T19:35:03.834Z,29.60
2018-12-01T19:37:33.297Z,31.17
2018-12-01T19:40:08.730Z,31.17
2018-12-01T19:42:38.859Z,30.10
2018-12-01T19:45:10.307Z,32.47
2018-12-01T19:49:13.997Z,30.60
2018-12-01T19:51:46.986Z,29.17
2018-12-01T19:54:16.476Z,31.83
2018-12-01T19:56:48.994Z,31.23
2018-12-01T19:59:18.458Z,30.70
2018-12-01T20:01:53.528Z,32.30
2018-12-01T20:04:23.346Z,32.83
2018-12-01T20:06:53.570Z,30.33
2018-12-01T20:09:23.780Z,28.60
2018-12-01T20:12:01.077Z,30.13
2018-12-01T20:14:33.460Z,30.33
2018-12-01T20:17:03.164Z,30.07
2018-12-01T20:19:32.642Z,28.87
2018-12-01T20:22:06.475Z,27.07
2018-12-01T20:24:36.239Z,28.50
2018-12-01T20:27:07.755Z,28.83
2018-12-01T20:29:38.028Z,27.93
2018-12-01T20:32:13.559Z,26.10
2018-12-01T20:34:43.007Z,27.43
2018-12-01T20:37:17.554Z,27.30
2018-12-01T20:39:49.805Z,26.03
2018-12-01T20:42:20.875Z,24.93
2018-12-01T20:44:51.923Z,23.33
2018-12-01T20:47:21.955Z,25.27
2018-12-01T20:49:52.276Z,21.80
2018-12-01T20:52:28.261Z,22.87
2018-12-01T20:54:59.608Z,22.70
2018-12-01T20:57:31.363Z,24.77
2018-12-01T21:00:01.213Z,25.80
2018-12-01T21:02:32.785Z,24.33
2018-12-01T21:05:02.508Z,23.83
2018-12-01T21:07:32.908Z,19.13
2018-12-01T21:10:06.787Z,23.17
2018-12-01T21:12:36.743Z,19.83
2018-12-01T21:15:11.283Z,22.97
2018-12-01T21:17:42.092Z,22.73
2018-12-01T21:20:15.966Z,20.63
2018-12-01T21:22:51.262Z,23.30
2018-12-01T21:25:32.184Z,21.10
2018-12-01T21:28:02.577Z,20.57
2018-12-01T21:30:32.509Z,22.30
2018-12-01T21:33:12.006Z,21.43
2018-12-01T21:35:41.772Z,18.57
2018-12-01T21:38:13.824Z,23.33
2018-12-01T21:40:44.027Z,22.37
2018-12-01T21:43:15.779Z,22.43
2018-12-01T21:45:48.912Z,25.93
2018-12-01T21:48:20.711Z,21.43
2018-12-01T21:50:50.171Z,20.90
2018-12-01T21:53:21.908Z,21.17
2018-12-01T21:55:51.894Z,26.60
2018-12-01T21:58:21.536Z,24.70
2018-12-01T22:00:56.437Z,26.47
2018-12-01T22:03:27.809Z,25.00
2018-12-01T22:06:04.104Z,25.20
2018-12-01T22:08:36.649Z,21.73
2018-12-01T22:11:09.015Z,22.37
2018-12-01T22:13:39.657Z,25.67
2018-12-01T22:16:16.327Z,23.60
2018-12-01T22:18:48.556Z,24.33
2018-12-01T22:21:22.854Z,23.10
2018-12-01T22:23:54.086Z,24.33
2018-12-01T22:26:23.718Z,23.17
2018-12-01T22:28:54.450Z,25.57
2018-12-01T22:31:24.863Z,22.90
2018-12-01T22:33:54.332Z,21.57
2018-12-01T22:36:25.603Z,23.67
2018-12-01T22:38:55.311Z,22.30
2018-12-01T22:41:25.326Z,18.83
2018-12-01T22:43:56.548Z,22.47
2018-12-01T22:46:30.218Z,21.57
2018-12-01T22:49:00.528Z,20.80
2018-12-01T22:51:33.284Z,20.50
2018-12-01T22:54:15.015Z,21.27
2018-12-01T22:56:44.508Z,20.50
2018-12-01T22:59:13.995Z,21.10
2018-12-01T23:01:44.832Z,18.17
2018-12-01T23:04:15.040Z,22.27
2018-12-01T23:06:44.509Z,21.00
2018-12-01T23:09:16.196Z,22.67
2018-12-01T23:11:46.774Z,21.93
2018-12-01T23:14:21.988Z,21.83
2018-12-01T23:16:52.192Z,18.83
2018-12-01T23:19:21.554Z,21.70
2018-12-01T23:21:51.903Z,20.00
2018-12-01T23:24:21.782Z,22.00
2018-12-01T23:26:51.158Z,19.60
2018-12-01T23:29:20.591Z,23.47
2018-12-01T23:31:50.064Z,22.27
2018-12-01T23:34:19.767Z,21.40
2018-12-01T23:36:50.395Z,20.97
2018-12-01T23:39:20.679Z,20.30
2018-12-01T23:41:50.641Z,20.03
2018-12-01T23:44:28.521Z,21.30
2018-12-01T23:46:57.990Z,19.20
2018-12-01T23:49:27.399Z,18.50
2018-12-01T23:51:56.944Z,21.60
2018-12-01T23:54:27.749Z,20.87
2018-12-01T23:56:57.185Z,18.80
2018-12-01T23:59:27.011Z,20.60
